sensor_id;sensor_type;location;lat;lon;timestamp;pressure;altitude;pressure_sealevel;temperature;humidity
80308;BME280;69616;43.522;1.348;2024-03-06T00:00:06;100672.59;;;8.24;70.78
80308;BME280;69616;43.522;1.348;2024-03-06T00:02:33;100676.09;;;8.23;71.09
80308;BME280;69616;43.522;1.348;2024-03-06T00:04:59;100679.50;;;8.18;71.04
80308;BME280;69616;43.522;1.348;2024-03-06T00:07:24;100682.13;;;8.18;71.02
80308;BME280;69616;43.522;1.348;2024-03-06T00:09:50;100696.13;;;8.17;70.95
80308;BME280;69616;43.522;1.348;2024-03-06T00:12:15;100692.63;;;8.17;71.06
80308;BME280;69616;43.522;1.348;2024-03-06T00:14:41;100686.50;;;8.15;71.08
80308;BME280;69616;43.522;1.348;2024-03-06T00:17:06;100678.63;;;8.15;71.02
80308;BME280;69616;43.522;1.348;2024-03-06T00:19:32;100676.84;;;8.15;70.88
80308;BME280;69616;43.522;1.348;2024-03-06T00:21:58;100682.09;;;8.14;70.99
80308;BME280;69616;43.522;1.348;2024-03-06T00:24:23;100688.19;;;8.11;71.00
80308;BME280;69616;43.522;1.348;2024-03-06T00:26:48;100689.00;;;8.07;70.96
80308;BME280;69616;43.522;1.348;2024-03-06T00:29:14;100692.50;;;8.08;71.08
80308;BME280;69616;43.522;1.348;2024-03-06T00:31:43;100688.97;;;8.05;71.06
80308;BME280;69616;43.522;1.348;2024-03-06T00:34:10;100691.59;;;8.05;71.01
80308;BME280;69616;43.522;1.348;2024-03-06T00:36:36;100692.47;;;8.04;70.91
80308;BME280;69616;43.522;1.348;2024-03-06T00:39:01;100688.06;;;8.03;71.00
80308;BME280;69616;43.522;1.348;2024-03-06T00:41:29;100697.69;;;8.04;71.01
80308;BME280;69616;43.522;1.348;2024-03-06T00:43:55;100700.31;;;8.04;71.11
80308;BME280;69616;43.522;1.348;2024-03-06T00:46:20;100706.44;;;8.03;70.95
80308;BME280;69616;43.522;1.348;2024-03-06T00:48:46;100701.19;;;8.03;71.08
80308;BME280;69616;43.522;1.348;2024-03-06T00:51:11;100691.59;;;8.04;71.40
80308;BME280;69616;43.522;1.348;2024-03-06T00:53:37;100691.59;;;8.05;71.13
80308;BME280;69616;43.522;1.348;2024-03-06T00:56:02;100689.88;;;8.06;70.95
80308;BME280;69616;43.522;1.348;2024-03-06T00:58:28;100688.16;;;8.08;71.12
80308;BME280;69616;43.522;1.348;2024-03-06T01:00:53;100691.66;;;8.09;71.06
80308;BME280;69616;43.522;1.348;2024-03-06T01:03:19;100682.94;;;8.10;71.26
80308;BME280;69616;43.522;1.348;2024-03-06T01:05:45;100694.28;;;8.09;71.02
80308;BME280;69616;43.522;1.348;2024-03-06T01:08:11;100686.34;;;8.05;71.34
80308;BME280;69616;43.522;1.348;2024-03-06T01:10:36;100685.50;;;8.07;71.43
80308;BME280;69616;43.522;1.348;2024-03-06T01:13:02;100685.50;;;8.07;71.11
80308;BME280;69616;43.522;1.348;2024-03-06T01:15:27;100683.78;;;8.10;71.17
80308;BME280;69616;43.522;1.348;2024-03-06T01:17:52;100685.59;;;8.13;71.04
80308;BME280;69616;43.522;1.348;2024-03-06T01:20:18;100675.09;;;8.14;71.05
80308;BME280;69616;43.522;1.348;2024-03-06T01:22:43;100667.25;;;8.16;71.06
80308;BME280;69616;43.522;1.348;2024-03-06T01:25:11;100668.16;;;8.18;71.17
80308;BME280;69616;43.522;1.348;2024-03-06T01:27:36;100674.31;;;8.20;71.05
80308;BME280;69616;43.522;1.348;2024-03-06T01:30:02;100672.53;;;8.19;71.14
80308;BME280;69616;43.522;1.348;2024-03-06T01:32:27;100670.78;;;8.19;71.05
80308;BME280;69616;43.522;1.348;2024-03-06T01:34:53;100676.03;;;8.19;70.94
80308;BME280;69616;43.522;1.348;2024-03-06T01:37:18;100684.78;;;8.20;71.02
80308;BME280;69616;43.522;1.348;2024-03-06T01:39:43;100669.91;;;8.19;71.05
80308;BME280;69616;43.522;1.348;2024-03-06T01:42:09;100666.44;;;8.20;70.88
80308;BME280;69616;43.522;1.348;2024-03-06T01:44:34;100672.53;;;8.19;71.12
80308;BME280;69616;43.522;1.348;2024-03-06T01:47:00;100669.94;;;8.21;70.96
80308;BME280;69616;43.522;1.348;2024-03-06T01:49:26;100657.66;;;8.18;70.94
80308;BME280;69616;43.522;1.348;2024-03-06T01:51:54;100655.00;;;8.16;70.99
80308;BME280;69616;43.522;1.348;2024-03-06T01:54:21;100657.63;;;8.16;71.02
80308;BME280;69616;43.522;1.348;2024-03-06T01:56:49;100655.00;;;8.15;71.11
80308;BME280;69616;43.522;1.348;2024-03-06T01:59:15;100654.16;;;8.16;71.27
80308;BME280;69616;43.522;1.348;2024-03-06T02:01:42;100643.66;;;8.16;71.20
80308;BME280;69616;43.522;1.348;2024-03-06T02:04:08;100640.13;;;8.14;70.95
80308;BME280;69616;43.522;1.348;2024-03-06T02:06:40;100640.09;;;8.12;71.42
80308;BME280;69616;43.522;1.348;2024-03-06T02:09:05;100640.09;;;8.11;71.48
80308;BME280;69616;43.522;1.348;2024-03-06T02:11:32;100634.00;;;8.12;71.45
80308;BME280;69616;43.522;1.348;2024-03-06T02:13:57;100634.88;;;8.14;71.44
80308;BME280;69616;43.522;1.348;2024-03-06T02:16:23;100630.53;;;8.16;71.42
80308;BME280;69616;43.522;1.348;2024-03-06T02:18:55;100623.53;;;8.15;71.60
80308;BME280;69616;43.522;1.348;2024-03-06T02:21:23;100625.28;;;8.17;71.44
80308;BME280;69616;43.522;1.348;2024-03-06T02:23:48;100620.94;;;8.18;71.44
80308;BME280;69616;43.522;1.348;2024-03-06T02:26:16;100618.28;;;8.16;71.54
80308;BME280;69616;43.522;1.348;2024-03-06T02:28:48;100606.00;;;8.12;71.47
80308;BME280;69616;43.522;1.348;2024-03-06T02:31:16;100618.25;;;8.13;71.36
80308;BME280;69616;43.522;1.348;2024-03-06T02:33:43;100616.53;;;8.14;71.57
80308;BME280;69616;43.522;1.348;2024-03-06T02:36:09;100609.53;;;8.13;71.56
80308;BME280;69616;43.522;1.348;2024-03-06T02:38:34;100608.63;;;8.11;71.61
80308;BME280;69616;43.522;1.348;2024-03-06T02:41:01;100612.97;;;8.10;71.82
80308;BME280;69616;43.522;1.348;2024-03-06T02:43:27;100608.63;;;8.11;71.85
80308;BME280;69616;43.522;1.348;2024-03-06T02:45:52;100607.69;;;8.07;72.07
80308;BME280;69616;43.522;1.348;2024-03-06T02:48:18;100604.16;;;8.03;72.15
80308;BME280;69616;43.522;1.348;2024-03-06T02:50:44;100605.88;;;8.01;72.10
80308;BME280;69616;43.522;1.348;2024-03-06T02:53:10;100607.59;;;7.99;72.12
80308;BME280;69616;43.522;1.348;2024-03-06T02:55:35;100604.97;;;7.99;72.42
80308;BME280;69616;43.522;1.348;2024-03-06T02:58:04;100598.88;;;7.99;72.31
80308;BME280;69616;43.522;1.348;2024-03-06T03:00:29;100584.84;;;7.97;72.36
80308;BME280;69616;43.522;1.348;2024-03-06T03:02:56;100585.75;;;7.99;72.15
80308;BME280;69616;43.522;1.348;2024-03-06T03:05:21;100585.72;;;7.97;71.96
80308;BME280;69616;43.522;1.348;2024-03-06T03:07:47;100587.47;;;7.98;72.04
80308;BME280;69616;43.522;1.348;2024-03-06T03:10:12;100585.72;;;7.97;71.93
80308;BME280;69616;43.522;1.348;2024-03-06T03:12:41;100582.25;;;7.98;71.91
80308;BME280;69616;43.522;1.348;2024-03-06T03:15:07;100585.75;;;7.99;71.75
80308;BME280;69616;43.522;1.348;2024-03-06T03:17:33;100580.47;;;7.97;71.76
80308;BME280;69616;43.522;1.348;2024-03-06T03:20:02;100586.56;;;7.95;72.01
80308;BME280;69616;43.522;1.348;2024-03-06T03:22:41;100578.69;;;7.93;72.04
80308;BME280;69616;43.522;1.348;2024-03-06T03:25:10;100573.44;;;7.93;71.94
80308;BME280;69616;43.522;1.348;2024-03-06T03:27:40;100570.78;;;7.92;71.91
80308;BME280;69616;43.522;1.348;2024-03-06T03:30:09;100571.69;;;7.92;72.05
80308;BME280;69616;43.522;1.348;2024-03-06T03:32:36;100569.94;;;7.91;72.05
80308;BME280;69616;43.522;1.348;2024-03-06T03:35:01;100576.03;;;7.92;71.96
80308;BME280;69616;43.522;1.348;2024-03-06T03:37:27;100574.28;;;7.90;71.95
80308;BME280;69616;43.522;1.348;2024-03-06T03:39:53;100583.91;;;7.90;72.02
80308;BME280;69616;43.522;1.348;2024-03-06T03:42:18;100576.91;;;7.89;72.09
80308;BME280;69616;43.522;1.348;2024-03-06T03:44:44;100574.25;;;7.87;72.07
80308;BME280;69616;43.522;1.348;2024-03-06T03:47:09;100573.38;;;7.87;71.99
80308;BME280;69616;43.522;1.348;2024-03-06T03:49:35;100568.09;;;7.85;72.29
80308;BME280;69616;43.522;1.348;2024-03-06T03:52:01;100566.34;;;7.84;72.27
80308;BME280;69616;43.522;1.348;2024-03-06T03:54:26;100565.41;;;7.81;72.35
80308;BME280;69616;43.522;1.348;2024-03-06T03:56:52;100562.75;;;7.78;72.28
80308;BME280;69616;43.522;1.348;2024-03-06T03:59:17;100557.47;;;7.74;72.54
80308;BME280;69616;43.522;1.348;2024-03-06T04:01:45;100566.22;;;7.73;72.59
80308;BME280;69616;43.522;1.348;2024-03-06T04:04:11;100561.00;;;7.75;72.52
80308;BME280;69616;43.522;1.348;2024-03-06T04:06:37;100561.91;;;7.77;72.73
80308;BME280;69616;43.522;1.348;2024-03-06T04:09:03;100560.16;;;7.79;72.49
80308;BME280;69616;43.522;1.348;2024-03-06T04:11:29;100565.41;;;7.81;72.39
80308;BME280;69616;43.522;1.348;2024-03-06T04:13:55;100570.66;;;7.79;72.41
80308;BME280;69616;43.522;1.348;2024-03-06T04:16:20;100562.78;;;7.79;72.11
80308;BME280;69616;43.522;1.348;2024-03-06T04:18:46;100569.75;;;7.79;72.29
80308;BME280;69616;43.522;1.348;2024-03-06T04:21:12;100569.72;;;7.75;72.54
80308;BME280;69616;43.522;1.348;2024-03-06T04:23:39;100579.28;;;7.70;73.11
80308;BME280;69616;43.522;1.348;2024-03-06T04:26:05;100573.06;;;7.64;73.38
80308;BME280;69616;43.522;1.348;2024-03-06T04:28:31;100579.19;;;7.63;73.33
80308;BME280;69616;43.522;1.348;2024-03-06T04:30:57;100582.63;;;7.58;73.83
80308;BME280;69616;43.522;1.348;2024-03-06T04:33:22;100572.06;;;7.54;73.88
80308;BME280;69616;43.522;1.348;2024-03-06T04:35:47;100570.31;;;7.51;74.20
80308;BME280;69616;43.522;1.348;2024-03-06T04:38:13;100580.75;;;7.50;74.69
80308;BME280;69616;43.522;1.348;2024-03-06T04:40:39;100581.56;;;7.45;75.10
80308;BME280;69616;43.522;1.348;2024-03-06T04:43:04;100580.69;;;7.43;74.87
80308;BME280;69616;43.522;1.348;2024-03-06T04:45:31;100583.31;;;7.43;75.05
80308;BME280;69616;43.522;1.348;2024-03-06T04:47:56;100586.78;;;7.42;75.96
80308;BME280;69616;43.522;1.348;2024-03-06T04:50:21;100583.25;;;7.42;75.76
80308;BME280;69616;43.522;1.348;2024-03-06T04:52:47;100578.88;;;7.41;75.73
80308;BME280;69616;43.522;1.348;2024-03-06T04:55:12;100579.75;;;7.38;75.98
80308;BME280;69616;43.522;1.348;2024-03-06T04:57:39;100575.31;;;7.36;76.45
80308;BME280;69616;43.522;1.348;2024-03-06T05:00:08;100574.44;;;7.33;77.03
80308;BME280;69616;43.522;1.348;2024-03-06T05:02:34;100572.66;;;7.34;76.85
80308;BME280;69616;43.522;1.348;2024-03-06T05:05:01;100570.91;;;7.33;77.19
80308;BME280;69616;43.522;1.348;2024-03-06T05:07:28;100574.38;;;7.32;76.83
80308;BME280;69616;43.522;1.348;2024-03-06T05:09:54;100571.78;;;7.32;77.37
80308;BME280;69616;43.522;1.348;2024-03-06T05:12:19;100564.78;;;7.31;77.37
80308;BME280;69616;43.522;1.348;2024-03-06T05:14:44;100572.63;;;7.31;77.00
80308;BME280;69616;43.522;1.348;2024-03-06T05:17:10;100577.88;;;7.31;77.00
80308;BME280;69616;43.522;1.348;2024-03-06T05:19:36;100576.19;;;7.35;76.83
80308;BME280;69616;43.522;1.348;2024-03-06T05:22:02;100573.56;;;7.35;76.80
80308;BME280;69616;43.522;1.348;2024-03-06T05:24:29;100571.84;;;7.37;76.08
80308;BME280;69616;43.522;1.348;2024-03-06T05:26:54;100564.84;;;7.36;76.24
80308;BME280;69616;43.522;1.348;2024-03-06T05:29:20;100564.88;;;7.37;76.58
80308;BME280;69616;43.522;1.348;2024-03-06T05:31:45;100564.88;;;7.37;76.60
80308;BME280;69616;43.522;1.348;2024-03-06T05:34:11;100558.78;;;7.38;76.39
80308;BME280;69616;43.522;1.348;2024-03-06T05:36:36;100560.53;;;7.39;76.05
80308;BME280;69616;43.522;1.348;2024-03-06T05:39:01;100564.06;;;7.41;76.13
80308;BME280;69616;43.522;1.348;2024-03-06T05:41:30;100568.44;;;7.44;75.96
80308;BME280;69616;43.522;1.348;2024-03-06T05:43:55;100572.84;;;7.46;75.78
80308;BME280;69616;43.522;1.348;2024-03-06T05:46:21;100575.50;;;7.50;75.40
80308;BME280;69616;43.522;1.348;2024-03-06T05:48:47;100581.66;;;7.52;75.48
80308;BME280;69616;43.522;1.348;2024-03-06T05:51:12;100581.69;;;7.53;75.40
80308;BME280;69616;43.522;1.348;2024-03-06T05:53:37;100583.41;;;7.53;74.90
80308;BME280;69616;43.522;1.348;2024-03-06T05:56:07;100579.06;;;7.53;75.04
80308;BME280;69616;43.522;1.348;2024-03-06T05:58:33;100576.38;;;7.49;75.58
80308;BME280;69616;43.522;1.348;2024-03-06T06:01:00;100571.09;;;7.45;75.35
80308;BME280;69616;43.522;1.348;2024-03-06T06:03:25;100566.72;;;7.44;75.67
80308;BME280;69616;43.522;1.348;2024-03-06T06:05:50;100564.06;;;7.43;75.72
80308;BME280;69616;43.522;1.348;2024-03-06T06:08:16;100568.44;;;7.42;75.56
80308;BME280;69616;43.522;1.348;2024-03-06T06:10:41;100570.13;;;7.37;75.30
80308;BME280;69616;43.522;1.348;2024-03-06T06:13:06;100572.66;;;7.34;75.35
80308;BME280;69616;43.522;1.348;2024-03-06T06:15:32;100574.38;;;7.32;75.63
80308;BME280;69616;43.522;1.348;2024-03-06T06:17:57;100581.31;;;7.27;75.70
80308;BME280;69616;43.522;1.348;2024-03-06T06:20:23;100570.78;;;7.24;75.87
80308;BME280;69616;43.522;1.348;2024-03-06T06:22:49;100580.38;;;7.22;75.22
80308;BME280;69616;43.522;1.348;2024-03-06T06:25:14;100577.66;;;7.17;75.95
80308;BME280;69616;43.522;1.348;2024-03-06T06:27:41;100577.53;;;7.09;76.06
80308;BME280;69616;43.522;1.348;2024-03-06T06:30:07;100579.22;;;7.04;75.82
80308;BME280;69616;43.522;1.348;2024-03-06T06:32:37;100576.59;;;7.02;76.04
80308;BME280;69616;43.522;1.348;2024-03-06T06:35:04;100572.22;;;7.03;75.97
80308;BME280;69616;43.522;1.348;2024-03-06T06:37:30;100579.25;;;7.07;76.21
80308;BME280;69616;43.522;1.348;2024-03-06T06:39:55;100578.44;;;7.10;75.90
80308;BME280;69616;43.522;1.348;2024-03-06T06:42:20;100580.25;;;7.12;75.29
80308;BME280;69616;43.522;1.348;2024-03-06T06:44:46;100578.53;;;7.14;75.70
80308;BME280;69616;43.522;1.348;2024-03-06T06:47:11;100581.97;;;7.12;75.48
80308;BME280;69616;43.522;1.348;2024-03-06T06:49:37;100580.25;;;7.14;75.49
80308;BME280;69616;43.522;1.348;2024-03-06T06:52:02;100576.78;;;7.15;75.24
80308;BME280;69616;43.522;1.348;2024-03-06T06:54:28;100575.91;;;7.14;75.01
80308;BME280;69616;43.522;1.348;2024-03-06T06:56:53;100572.38;;;7.12;75.46
80308;BME280;69616;43.522;1.348;2024-03-06T06:59:19;100579.31;;;7.10;75.38
80308;BME280;69616;43.522;1.348;2024-03-06T07:01:48;100579.31;;;7.10;75.50
80308;BME280;69616;43.522;1.348;2024-03-06T07:04:13;100574.06;;;7.10;75.36
80308;BME280;69616;43.522;1.348;2024-03-06T07:06:41;100573.16;;;7.07;75.60
80308;BME280;69616;43.522;1.348;2024-03-06T07:09:07;100568.78;;;7.07;75.28
80308;BME280;69616;43.522;1.348;2024-03-06T07:11:34;100570.56;;;7.08;75.33
80308;BME280;69616;43.522;1.348;2024-03-06T07:14:00;100574.03;;;7.07;75.29
80308;BME280;69616;43.522;1.348;2024-03-06T07:16:25;100574.94;;;7.08;75.54
80308;BME280;69616;43.522;1.348;2024-03-06T07:18:50;100571.41;;;7.06;75.46
80308;BME280;69616;43.522;1.348;2024-03-06T07:21:16;100569.72;;;7.11;75.23
80308;BME280;69616;43.522;1.348;2024-03-06T07:23:43;100567.19;;;7.15;74.85
80308;BME280;69616;43.522;1.348;2024-03-06T07:26:09;100565.50;;;7.22;74.58
80308;BME280;69616;43.522;1.348;2024-03-06T07:28:34;100566.53;;;7.32;74.12
80308;BME280;69616;43.522;1.348;2024-03-06T07:31:00;100562.25;;;7.37;73.95
80308;BME280;69616;43.522;1.348;2024-03-06T07:33:25;100562.34;;;7.43;73.43
80308;BME280;69616;43.522;1.348;2024-03-06T07:35:50;100564.09;;;7.44;72.63
80308;BME280;69616;43.522;1.348;2024-03-06T07:38:16;100565.81;;;7.42;73.04
80308;BME280;69616;43.522;1.348;2024-03-06T07:40:41;100566.69;;;7.43;72.54
80308;BME280;69616;43.522;1.348;2024-03-06T07:43:07;100565.84;;;7.45;72.84
80308;BME280;69616;43.522;1.348;2024-03-06T07:45:32;100561.56;;;7.49;72.75
80308;BME280;69616;43.522;1.348;2024-03-06T07:47:57;100560.72;;;7.55;72.11
80308;BME280;69616;43.522;1.348;2024-03-06T07:50:23;100560.81;;;7.61;71.98
80308;BME280;69616;43.522;1.348;2024-03-06T07:52:48;100562.56;;;7.60;71.17
80308;BME280;69616;43.522;1.348;2024-03-06T07:55:14;100570.50;;;7.67;70.97
80308;BME280;69616;43.522;1.348;2024-03-06T07:57:39;100571.41;;;7.70;71.42
80308;BME280;69616;43.522;1.348;2024-03-06T08:00:06;100572.38;;;7.77;71.07
80308;BME280;69616;43.522;1.348;2024-03-06T08:02:42;100575.09;;;7.86;71.07
80308;BME280;69616;43.522;1.348;2024-03-06T08:05:15;100574.34;;;7.95;70.93
80308;BME280;69616;43.522;1.348;2024-03-06T08:07:41;100576.19;;;8.04;70.59
80308;BME280;69616;43.522;1.348;2024-03-06T08:10:11;100583.25;;;8.10;70.93
80308;BME280;69616;43.522;1.348;2024-03-06T08:12:40;100592.91;;;8.14;70.39
80308;BME280;69616;43.522;1.348;2024-03-06T08:15:07;100586.81;;;8.16;70.54
80308;BME280;69616;43.522;1.348;2024-03-06T08:17:35;100592.94;;;8.18;69.75
80308;BME280;69616;43.522;1.348;2024-03-06T08:20:02;100593.00;;;8.23;70.06
80308;BME280;69616;43.522;1.348;2024-03-06T08:22:39;100580.00;;;8.32;69.81
80308;BME280;69616;43.522;1.348;2024-03-06T08:25:09;100591.47;;;8.44;69.49
80308;BME280;69616;43.522;1.348;2024-03-06T08:27:37;100588.09;;;8.54;69.22
80308;BME280;69616;43.522;1.348;2024-03-06T08:30:03;100592.56;;;8.63;68.65
80308;BME280;69616;43.522;1.348;2024-03-06T08:32:32;100591.78;;;8.75;68.85
80308;BME280;69616;43.522;1.348;2024-03-06T08:35:08;100588.41;;;8.88;68.29
80308;BME280;69616;43.522;1.348;2024-03-06T08:37:40;100593.75;;;8.99;67.71
80308;BME280;69616;43.522;1.348;2024-03-06T08:40:07;100582.44;;;9.08;67.37
80308;BME280;69616;43.522;1.348;2024-03-06T08:42:32;100589.56;;;9.26;67.42
80308;BME280;69616;43.522;1.348;2024-03-06T08:44:58;100587.91;;;9.44;66.79
80308;BME280;69616;43.522;1.348;2024-03-06T08:47:23;100594.13;;;9.60;66.49
80308;BME280;69616;43.522;1.348;2024-03-06T08:49:49;100588.03;;;9.67;66.60
80308;BME280;69616;43.522;1.348;2024-03-06T08:52:15;100590.69;;;9.76;65.87
80308;BME280;69616;43.522;1.348;2024-03-06T08:54:40;100592.44;;;9.74;65.21
80308;BME280;69616;43.522;1.348;2024-03-06T08:57:10;100591.59;;;9.80;65.70
80308;BME280;69616;43.522;1.348;2024-03-06T08:59:35;100596.00;;;9.84;65.73
80308;BME280;69616;43.522;1.348;2024-03-06T09:02:15;100596.91;;;9.93;64.03
80308;BME280;69616;43.522;1.348;2024-03-06T09:04:42;100593.44;;;10.03;65.13
80308;BME280;69616;43.522;1.348;2024-03-06T09:07:07;100596.94;;;10.08;64.45
80308;BME280;69616;43.522;1.348;2024-03-06T09:09:34;100596.09;;;10.17;64.82
80308;BME280;69616;43.522;1.348;2024-03-06T09:12:00;100594.34;;;10.22;64.05
80308;BME280;69616;43.522;1.348;2024-03-06T09:14:26;100591.75;;;10.27;64.03
80308;BME280;69616;43.522;1.348;2024-03-06T09:16:51;100590.91;;;10.39;64.06
80308;BME280;69616;43.522;1.348;2024-03-06T09:19:17;100589.19;;;10.45;64.34
80308;BME280;69616;43.522;1.348;2024-03-06T09:21:42;100591.81;;;10.58;64.45
80308;BME280;69616;43.522;1.348;2024-03-06T09:24:07;100587.47;;;10.66;64.06
80308;BME280;69616;43.522;1.348;2024-03-06T09:26:33;100594.50;;;10.75;64.04
80308;BME280;69616;43.522;1.348;2024-03-06T09:28:58;100595.38;;;10.86;63.75
80308;BME280;69616;43.522;1.348;2024-03-06T09:31:23;100587.44;;;10.96;63.53
80308;BME280;69616;43.522;1.348;2024-03-06T09:33:50;100595.38;;;11.05;63.23
80308;BME280;69616;43.522;1.348;2024-03-06T09:36:15;100592.72;;;11.06;62.72
80308;BME280;69616;43.522;1.348;2024-03-06T09:38:41;100590.97;;;11.10;62.76
80308;BME280;69616;43.522;1.348;2024-03-06T09:41:08;100592.72;;;11.11;62.78
80308;BME280;69616;43.522;1.348;2024-03-06T09:43:33;100596.22;;;11.21;63.01
80308;BME280;69616;43.522;1.348;2024-03-06T09:45:59;100597.09;;;11.36;62.73
80308;BME280;69616;43.522;1.348;2024-03-06T09:48:27;100592.66;;;11.52;62.75
80308;BME280;69616;43.522;1.348;2024-03-06T09:50:59;100593.50;;;11.63;62.73
80308;BME280;69616;43.522;1.348;2024-03-06T09:53:26;100580.28;;;11.72;62.45
80308;BME280;69616;43.522;1.348;2024-03-06T09:55:51;100585.50;;;11.85;62.58
80308;BME280;69616;43.522;1.348;2024-03-06T09:58:17;100585.47;;;11.94;62.25
80308;BME280;69616;43.522;1.348;2024-03-06T10:00:42;100588.09;;;12.02;62.29
80308;BME280;69616;43.522;1.348;2024-03-06T10:03:09;100577.53;;;12.08;62.43
80308;BME280;69616;43.522;1.348;2024-03-06T10:05:36;100570.38;;;12.23;61.98
80308;BME280;69616;43.522;1.348;2024-03-06T10:08:02;100571.22;;;12.29;61.77
80308;BME280;69616;43.522;1.348;2024-03-06T10:10:29;100564.16;;;12.31;61.76
80308;BME280;69616;43.522;1.348;2024-03-06T10:12:55;100563.34;;;12.23;61.67
80308;BME280;69616;43.522;1.348;2024-03-06T10:15:22;100561.59;;;12.20;61.43
80308;BME280;69616;43.522;1.348;2024-03-06T10:17:47;100563.34;;;12.23;61.55
80308;BME280;69616;43.522;1.348;2024-03-06T10:20:23;100564.16;;;12.31;61.52
80308;BME280;69616;43.522;1.348;2024-03-06T10:22:53;100567.59;;;12.46;61.45
80308;BME280;69616;43.522;1.348;2024-03-06T10:25:22;100561.28;;;12.66;61.17
80308;BME280;69616;43.522;1.348;2024-03-06T10:28:10;100557.50;;;12.96;59.87
80308;BME280;69616;43.522;1.348;2024-03-06T10:30:40;100562.56;;;13.21;60.41
80308;BME280;69616;43.522;1.348;2024-03-06T10:33:07;100549.91;;;13.53;59.95
80308;BME280;69616;43.522;1.348;2024-03-06T10:35:36;100544.25;;;13.82;59.75
80308;BME280;69616;43.522;1.348;2024-03-06T10:38:06;100539.44;;;14.12;59.50
80308;BME280;69616;43.522;1.348;2024-03-06T10:40:33;100530.25;;;14.37;59.02
80308;BME280;69616;43.522;1.348;2024-03-06T10:43:00;100541.44;;;14.56;59.00
80308;BME280;69616;43.522;1.348;2024-03-06T10:45:47;100528.78;;;14.75;58.02
80308;BME280;69616;43.522;1.348;2024-03-06T10:48:19;100524.91;;;14.93;58.05
80308;BME280;69616;43.522;1.348;2024-03-06T10:50:46;100520.22;;;15.09;57.84
80308;BME280;69616;43.522;1.348;2024-03-06T10:53:18;100516.28;;;15.29;54.16
80308;BME280;69616;43.522;1.348;2024-03-06T10:55:44;100512.63;;;15.36;56.50
80308;BME280;69616;43.522;1.348;2024-03-06T10:58:10;100508.13;;;15.40;56.06
80308;BME280;69616;43.522;1.348;2024-03-06T11:00:38;100510.88;;;15.35;56.50
80308;BME280;69616;43.522;1.348;2024-03-06T11:03:07;100511.69;;;15.39;56.66
80308;BME280;69616;43.522;1.348;2024-03-06T11:05:36;100504.34;;;15.52;56.75
80308;BME280;69616;43.522;1.348;2024-03-06T11:08:06;100504.78;;;15.72;56.26
80308;BME280;69616;43.522;1.348;2024-03-06T11:10:33;100504.66;;;15.78;55.71
80308;BME280;69616;43.522;1.348;2024-03-06T11:13:01;100500.94;;;15.87;55.45
80308;BME280;69616;43.522;1.348;2024-03-06T11:15:27;100507.00;;;15.96;55.49
80308;BME280;69616;43.522;1.348;2024-03-06T11:17:53;100504.94;;;16.07;54.98
80308;BME280;69616;43.522;1.348;2024-03-06T11:20:20;100497.56;;;16.20;53.01
80308;BME280;69616;43.522;1.348;2024-03-06T11:25:59;100491.75;;;16.02;52.51
80308;BME280;69616;43.522;1.348;2024-03-06T11:28:28;100496.22;;;16.02;53.18
80308;BME280;69616;43.522;1.348;2024-03-06T11:30:58;100500.31;;;16.15;53.20
80308;BME280;69616;43.522;1.348;2024-03-06T11:33:28;100489.31;;;16.32;53.37
80308;BME280;69616;43.522;1.348;2024-03-06T11:36:31;100481.84;;;16.47;52.64
80308;BME280;69616;43.522;1.348;2024-03-06T11:39:07;100476.97;;;16.66;52.57
80308;BME280;69616;43.522;1.348;2024-03-06T11:44:01;100473.44;;;16.99;52.28
80308;BME280;69616;43.522;1.348;2024-03-06T11:46:46;100470.44;;;17.13;51.59
80308;BME280;69616;43.522;1.348;2024-03-06T11:49:20;100466.19;;;17.37;51.78
80308;BME280;69616;43.522;1.348;2024-03-06T11:51:52;100459.50;;;17.54;50.66
80308;BME280;69616;43.522;1.348;2024-03-06T11:54:18;100460.75;;;17.40;50.89
80308;BME280;69616;43.522;1.348;2024-03-06T11:56:49;100457.09;;;17.44;50.86
80308;BME280;69616;43.522;1.348;2024-03-06T11:59:28;100451.50;;;17.54;51.05
80308;BME280;69616;43.522;1.348;2024-03-06T12:02:00;100442.94;;;17.72;50.43
80308;BME280;69616;43.522;1.348;2024-03-06T12:04:33;100435.69;;;17.77;50.16
80308;BME280;69616;43.522;1.348;2024-03-06T12:07:00;100439.78;;;17.89;49.72
80308;BME280;69616;43.522;1.348;2024-03-06T12:09:30;100432.53;;;17.93;48.47
80308;BME280;69616;43.522;1.348;2024-03-06T12:11:56;100423.44;;;18.00;48.11
80308;BME280;69616;43.522;1.348;2024-03-06T12:14:22;100428.69;;;18.03;47.70
80308;BME280;69616;43.522;1.348;2024-03-06T12:17:14;100419.31;;;17.90;47.81
80308;BME280;69616;43.522;1.348;2024-03-06T12:19:42;100424.97;;;18.09;47.75
80308;BME280;69616;43.522;1.348;2024-03-06T12:22:10;100423.50;;;18.26;47.75
80308;BME280;69616;43.522;1.348;2024-03-06T12:24:36;100412.69;;;18.30;47.66
80308;BME280;69616;43.522;1.348;2024-03-06T12:27:03;100405.03;;;18.46;47.75
80308;BME280;69616;43.522;1.348;2024-03-06T12:29:30;100403.41;;;18.68;46.68
80308;BME280;69616;43.522;1.348;2024-03-06T12:31:57;100406.13;;;18.91;47.00
80308;BME280;69616;43.522;1.348;2024-03-06T12:34:23;100401.31;;;19.03;46.50
80308;BME280;69616;43.522;1.348;2024-03-06T12:36:48;100398.84;;;18.71;46.37
80308;BME280;69616;43.522;1.348;2024-03-06T12:39:15;100393.34;;;18.50;46.71
80308;BME280;69616;43.522;1.348;2024-03-06T12:41:43;100386.78;;;18.08;46.63
80308;BME280;69616;43.522;1.348;2024-03-06T12:44:09;100375.94;;;17.58;47.21
80308;BME280;69616;43.522;1.348;2024-03-06T12:46:34;100380.91;;;17.40;47.80
80308;BME280;69616;43.522;1.348;2024-03-06T12:48:59;100376.91;;;17.55;47.97
80308;BME280;69616;43.522;1.348;2024-03-06T12:51:25;100377.41;;;17.38;47.80
80308;BME280;69616;43.522;1.348;2024-03-06T12:53:51;100377.66;;;17.30;47.40
80308;BME280;69616;43.522;1.348;2024-03-06T12:56:17;100379.97;;;17.41;47.47
80308;BME280;69616;43.522;1.348;2024-03-06T12:58:42;100374.09;;;17.60;47.43
80308;BME280;69616;43.522;1.348;2024-03-06T13:01:08;100364.38;;;17.86;47.16